createdAt,value
2022-11-25T00:08:42.533Z,98503.06
2022-11-25T00:18:52.156Z,98497.10
2022-11-25T00:28:59.401Z,98498.10
2022-11-25T00:39:11.191Z,98497.59
2022-11-25T00:49:18.405Z,98502.19
2022-11-25T01:09:32.343Z,98515.39
2022-11-25T01:19:40.619Z,98517.35
2022-11-25T01:29:48.090Z,98519.16
2022-11-25T01:39:55.170Z,98518.20
2022-11-25T01:50:06.187Z,98513.61
2022-11-25T02:00:14.751Z,98520.02
2022-11-25T02:10:33.094Z,98527.86
2022-11-25T02:20:41.959Z,98534.70
2022-11-25T02:30:49.975Z,98532.13
2022-11-25T02:41:01.776Z,98536.20
2022-11-25T02:51:10.770Z,98537.66
2022-11-25T03:01:17.999Z,98546.00
2022-11-25T03:11:25.578Z,98551.37
2022-11-25T03:21:32.874Z,98555.08
2022-11-25T03:31:40.805Z,98554.74
2022-11-25T03:41:47.921Z,98562.02
2022-11-25T03:51:54.960Z,98565.42
2022-11-25T04:02:02.893Z,98568.21
2022-11-25T04:12:26.717Z,98564.54
2022-11-25T04:22:33.935Z,98570.71
2022-11-25T04:32:40.767Z,98576.56
2022-11-25T04:42:48.389Z,98576.55
2022-11-25T04:52:54.748Z,98585.59
2022-11-25T05:03:02.283Z,98590.31
2022-11-25T05:13:09.521Z,98594.51
2022-11-25T05:23:16.664Z,98607.77
2022-11-25T05:33:23.816Z,98617.70
2022-11-25T05:43:31.323Z,98625.73
2022-11-25T05:53:38.858Z,98632.99
2022-11-25T06:03:46.586Z,98639.04
2022-11-25T06:13:54.290Z,98640.36
2022-11-25T06:24:01.567Z,98642.33
2022-11-25T06:34:09.110Z,98650.72
2022-11-25T06:44:16.573Z,98660.45
2022-11-25T06:54:23.840Z,98669.27
2022-11-25T07:04:31.306Z,98668.80
2022-11-25T07:14:38.805Z,98676.09
2022-11-25T07:24:46.364Z,98678.69
2022-11-25T07:34:53.010Z,98682.96
2022-11-25T07:55:06.090Z,98698.37
2022-11-25T08:05:13.649Z,98709.20
2022-11-25T08:15:21.226Z,98715.77
2022-11-25T08:25:29.988Z,98723.45
2022-11-25T08:35:37.420Z,98730.03
2022-11-25T08:45:45.161Z,98729.45
2022-11-25T08:55:52.749Z,98734.11
2022-11-25T09:06:00.979Z,98745.45
2022-11-25T09:16:09.082Z,98749.70
2022-11-25T09:26:19.885Z,98746.70
2022-11-25T09:36:27.775Z,98749.77
2022-11-25T09:46:46.443Z,98747.52
2022-11-25T09:56:54.740Z,98742.87
2022-11-25T10:07:05.227Z,98747.02
2022-11-25T10:17:12.275Z,98741.52
2022-11-25T10:27:24.580Z,98744.17
2022-11-25T10:37:29.728Z,98749.60
2022-11-25T10:47:35.990Z,98747.83
2022-11-25T10:57:43.853Z,98745.98
2022-11-25T11:08:07.956Z,98749.70
2022-11-25T11:18:16.440Z,98750.14
2022-11-25T11:28:29.355Z,98757.67
2022-11-25T11:38:42.005Z,98760.67
2022-11-25T11:48:54.341Z,98755.23
2022-11-25T11:59:08.169Z,98763.33
2022-11-25T12:09:12.591Z,98767.91
2022-11-25T12:19:22.961Z,98768.19
2022-11-25T12:29:30.201Z,98763.63
2022-11-25T12:39:40.732Z,98769.24
2022-11-25T12:49:50.582Z,98767.15
2022-11-25T13:10:50.368Z,98763.31
2022-11-25T13:20:58.305Z,98771.42
2022-11-25T13:31:22.142Z,98776.82
2022-11-25T13:41:34.151Z,98779.33
2022-11-25T13:51:50.288Z,98779.12
2022-11-25T14:02:18.029Z,98787.73
2022-11-25T14:12:54.881Z,98792.92
2022-11-25T14:23:24.796Z,98801.23
2022-11-25T14:33:35.552Z,98808.23
2022-11-25T14:43:44.568Z,98809.55
2022-11-25T15:04:04.377Z,98821.39
2022-11-25T15:14:24.663Z,98825.52
2022-11-25T15:24:33.963Z,98820.76
2022-11-25T15:34:41.635Z,98821.53
2022-11-25T15:44:50.124Z,98828.63
2022-11-25T15:55:02.933Z,98835.69
2022-11-25T16:05:18.257Z,98835.15
2022-11-25T16:15:43.801Z,98838.08
2022-11-25T16:25:55.492Z,98850.13
2022-11-25T16:36:08.096Z,98847.08
2022-11-25T16:46:17.911Z,98852.26
2022-11-25T16:56:29.127Z,98855.79
2022-11-25T17:06:37.519Z,98855.98
2022-11-25T17:16:44.600Z,98860.33
2022-11-25T17:26:56.879Z,98873.12
2022-11-25T17:37:05.691Z,98879.22
2022-11-25T17:47:11.996Z,98884.88
2022-11-25T17:57:23.627Z,98894.08
2022-11-25T18:07:31.184Z,98898.08
2022-11-25T18:17:38.124Z,98905.37
2022-11-25T18:27:45.837Z,98902.21
2022-11-25T18:37:53.187Z,98898.16
2022-11-25T18:47:59.313Z,98910.33
2022-11-25T18:58:11.509Z,98912.92
2022-11-25T19:08:18.838Z,98914.70
2022-11-25T19:18:27.890Z,98915.23
2022-11-25T19:28:35.576Z,98918.81
2022-11-25T19:38:42.937Z,98934.55
2022-11-25T19:48:50.385Z,98942.33
2022-11-25T19:58:58.418Z,98946.84
2022-11-25T20:09:08.219Z,98954.90
2022-11-25T20:19:15.949Z,98963.13
2022-11-25T20:29:30.469Z,98969.88
2022-11-25T20:39:38.575Z,98975.31
2022-11-25T20:49:46.648Z,98984.88
2022-11-25T20:59:54.233Z,98988.95
2022-11-25T21:10:01.651Z,98991.90
2022-11-25T21:20:10.551Z,98991.45
2022-11-25T21:30:18.483Z,98992.79
2022-11-25T21:40:28.538Z,98992.25
2022-11-25T21:50:35.624Z,98994.71
2022-11-25T22:00:43.257Z,99000.04
2022-11-25T22:10:52.872Z,99005.48
2022-11-25T22:20:58.754Z,99014.17
2022-11-25T22:31:12.166Z,99028.84
2022-11-25T22:41:19.270Z,99035.73
2022-11-25T22:51:29.050Z,99053.13
2022-11-25T23:01:36.190Z,99052.23
2022-11-25T23:11:43.370Z,99055.36
2022-11-25T23:21:50.516Z,99056.27
2022-11-25T23:31:58.091Z,99060.66
2022-11-25T23:42:05.238Z,99073.85
2022-11-25T23:52:16.235Z,99078.29
